Terminal Aerodrome Forecast
Issued by NWS Topeka, KS

Home | Current Version | Previous Version | Graphics & Text | Print | Product List | Glossary On
Versions: 1 2 3 4 5 6 7 8 9 10 11 12 13 14
000
FTUS43 KTOP 202300
TAFTOP
TAF
KTOP 202320Z 2100/2124 18011G18KT P6SM SCT300
     FM210100 18010KT P6SM SCT300
     FM211400 20014G21KT P6SM FEW060 SCT300=

USA.gov is the U.S. government's official web portal to all federal, state and local government web resources and services.